sensor_id;sensor_type;location;lat;lon;timestamp;pressure;altitude;pressure_sealevel;temperature;humidity
68226;BME280;55045;49.410;11.030;2023-06-10T00:01:32;97765.13;;;14.38;100.00
68226;BME280;55045;49.410;11.030;2023-06-10T00:04:36;97747.00;;;14.24;100.00
68226;BME280;55045;49.410;11.030;2023-06-10T00:07:41;97763.97;;;14.29;100.00
68226;BME280;55045;49.410;11.030;2023-06-10T00:10:44;97762.66;;;14.24;100.00
68226;BME280;55045;49.410;11.030;2023-06-10T00:13:47;97769.00;;;14.20;100.00
68226;BME280;55045;49.410;11.030;2023-06-10T00:16:50;97764.63;;;14.07;100.00
68226;BME280;55045;49.410;11.030;2023-06-10T00:19:54;97761.41;;;14.04;100.00
68226;BME280;55045;49.410;11.030;2023-06-10T00:22:59;97762.13;;;14.06;100.00
68226;BME280;55045;49.410;11.030;2023-06-10T00:26:03;97764.22;;;14.01;100.00
68226;BME280;55045;49.410;11.030;2023-06-10T00:29:09;97762.13;;;13.93;100.00
68226;BME280;55045;49.410;11.030;2023-06-10T00:32:12;97771.81;;;13.91;100.00
68226;BME280;55045;49.410;11.030;2023-06-10T00:35:15;97773.69;;;13.89;100.00
68226;BME280;55045;49.410;11.030;2023-06-10T00:38:20;97772.22;;;13.85;100.00
68226;BME280;55045;49.410;11.030;2023-06-10T00:41:24;97774.00;;;13.84;100.00
68226;BME280;55045;49.410;11.030;2023-06-10T00:44:28;97777.09;;;13.77;100.00
68226;BME280;55045;49.410;11.030;2023-06-10T00:47:31;97772.09;;;13.74;100.00
68226;BME280;55045;49.410;11.030;2023-06-10T00:50:35;97775.25;;;13.92;100.00
68226;BME280;55045;49.410;11.030;2023-06-10T00:53:42;97768.34;;;13.65;100.00
68226;BME280;55045;49.410;11.030;2023-06-10T00:56:47;97772.19;;;13.60;100.00
68226;BME280;55045;49.410;11.030;2023-06-10T00:59:51;97770.59;;;13.57;100.00
68226;BME280;55045;49.410;11.030;2023-06-10T01:02:54;97773.72;;;13.49;100.00
68226;BME280;55045;49.410;11.030;2023-06-10T01:06:01;97775.78;;;13.44;100.00
68226;BME280;55045;49.410;11.030;2023-06-10T01:09:13;97769.28;;;13.37;100.00
68226;BME280;55045;49.410;11.030;2023-06-10T01:12:28;97768.81;;;13.45;100.00
68226;BME280;55045;49.410;11.030;2023-06-10T01:15:34;97766.19;;;13.45;100.00
68226;BME280;55045;49.410;11.030;2023-06-10T01:18:40;97767.44;;;13.39;100.00
68226;BME280;55045;49.410;11.030;2023-06-10T01:21:45;97760.34;;;13.29;100.00
68226;BME280;55045;49.410;11.030;2023-06-10T01:24:53;97774.47;;;13.24;100.00
68226;BME280;55045;49.410;11.030;2023-06-10T01:28:02;97767.69;;;13.22;100.00
68226;BME280;55045;49.410;11.030;2023-06-10T01:31:13;97786.13;;;13.19;100.00
68226;BME280;55045;49.410;11.030;2023-06-10T01:34:21;97770.56;;;13.17;100.00
68226;BME280;55045;49.410;11.030;2023-06-10T01:37:29;97783.25;;;13.09;100.00
68226;BME280;55045;49.410;11.030;2023-06-10T01:40:34;97775.44;;;13.09;100.00
68226;BME280;55045;49.410;11.030;2023-06-10T01:43:38;97782.69;;;13.04;100.00
68226;BME280;55045;49.410;11.030;2023-06-10T01:46:41;97789.38;;;13.08;100.00
68226;BME280;55045;49.410;11.030;2023-06-10T01:49:46;97794.50;;;13.10;100.00
68226;BME280;55045;49.410;11.030;2023-06-10T01:52:50;97795.69;;;13.18;100.00
68226;BME280;55045;49.410;11.030;2023-06-10T01:55:54;97795.34;;;13.10;100.00
68226;BME280;55045;49.410;11.030;2023-06-10T01:58:58;97798.94;;;13.08;100.00
68226;BME280;55045;49.410;11.030;2023-06-10T02:02:02;97796.34;;;13.08;100.00
68226;BME280;55045;49.410;11.030;2023-06-10T02:05:07;97794.63;;;13.35;100.00
68226;BME280;55045;49.410;11.030;2023-06-10T02:08:12;97784.75;;;13.40;100.00
68226;BME280;55045;49.410;11.030;2023-06-10T02:11:16;97787.53;;;13.37;100.00
68226;BME280;55045;49.410;11.030;2023-06-10T02:14:20;97783.47;;;13.33;100.00
68226;BME280;55045;49.410;11.030;2023-06-10T02:17:23;97759.88;;;13.22;100.00
68226;BME280;55045;49.410;11.030;2023-06-10T02:20:26;97782.00;;;13.15;100.00
68226;BME280;55045;49.410;11.030;2023-06-10T02:23:31;97786.13;;;13.19;100.00
68226;BME280;55045;49.410;11.030;2023-06-10T02:26:36;97790.53;;;13.17;100.00
68226;BME280;55045;49.410;11.030;2023-06-10T02:29:40;97790.66;;;13.15;100.00
68226;BME280;55045;49.410;11.030;2023-06-10T02:32:45;97801.28;;;13.12;100.00
68226;BME280;55045;49.410;11.030;2023-06-10T02:35:51;97797.38;;;13.05;100.00
68226;BME280;55045;49.410;11.030;2023-06-10T02:38:56;97799.69;;;13.10;100.00
68226;BME280;55045;49.410;11.030;2023-06-10T02:42:00;97797.09;;;13.10;100.00
68226;BME280;55045;49.410;11.030;2023-06-10T02:45:07;97803.25;;;12.94;100.00
68226;BME280;55045;49.410;11.030;2023-06-10T02:48:14;97799.19;;;12.90;100.00
68226;BME280;55045;49.410;11.030;2023-06-10T02:51:18;97799.19;;;12.90;100.00
68226;BME280;55045;49.410;11.030;2023-06-10T02:54:25;97810.06;;;12.83;100.00
68226;BME280;55045;49.410;11.030;2023-06-10T02:57:30;97812.03;;;12.79;100.00
68226;BME280;55045;49.410;11.030;2023-06-10T03:00:34;97816.03;;;12.71;100.00
68226;BME280;55045;49.410;11.030;2023-06-10T03:03:39;97814.94;;;12.60;100.00
68226;BME280;55045;49.410;11.030;2023-06-10T03:06:47;97817.63;;;12.59;100.00
68226;BME280;55045;49.410;11.030;2023-06-10T03:09:57;97815.13;;;12.57;100.00
68226;BME280;55045;49.410;11.030;2023-06-10T03:13:01;97814.75;;;12.49;100.00
68226;BME280;55045;49.410;11.030;2023-06-10T03:16:05;97817.16;;;12.52;100.00
68226;BME280;55045;49.410;11.030;2023-06-10T03:19:12;97808.31;;;12.55;100.00
68226;BME280;55045;49.410;11.030;2023-06-10T03:22:19;97812.44;;;12.59;100.00
68226;BME280;55045;49.410;11.030;2023-06-10T03:25:44;97814.47;;;12.54;100.00
68226;BME280;55045;49.410;11.030;2023-06-10T03:28:51;97816.31;;;12.52;100.00
68226;BME280;55045;49.410;11.030;2023-06-10T03:34:20;97827.31;;;12.57;100.00
68226;BME280;55045;49.410;11.030;2023-06-10T03:37:23;97822.56;;;12.49;100.00
68226;BME280;55045;49.410;11.030;2023-06-10T03:40:27;97827.31;;;12.57;100.00
68226;BME280;55045;49.410;11.030;2023-06-10T03:43:32;97820.41;;;12.70;100.00
68226;BME280;55045;49.410;11.030;2023-06-10T03:46:36;97818.47;;;12.59;100.00
68226;BME280;55045;49.410;11.030;2023-06-10T03:49:41;97815.03;;;12.59;100.00
68226;BME280;55045;49.410;11.030;2023-06-10T03:52:46;97824.56;;;12.73;100.00
68226;BME280;55045;49.410;11.030;2023-06-10T03:55:51;97827.81;;;12.90;100.00
68226;BME280;55045;49.410;11.030;2023-06-10T03:58:58;97823.72;;;12.86;100.00
68226;BME280;55045;49.410;11.030;2023-06-10T04:02:01;97818.50;;;13.01;100.00
68226;BME280;55045;49.410;11.030;2023-06-10T04:05:09;97820.53;;;13.10;100.00
68226;BME280;55045;49.410;11.030;2023-06-10T04:08:12;97824.91;;;13.09;100.00
68226;BME280;55045;49.410;11.030;2023-06-10T04:11:16;97830.53;;;13.16;100.00
68226;BME280;55045;49.410;11.030;2023-06-10T04:14:20;97824.59;;;13.14;100.00
68226;BME280;55045;49.410;11.030;2023-06-10T04:17:23;97825.19;;;13.19;100.00
68226;BME280;55045;49.410;11.030;2023-06-10T04:20:28;97828.78;;;13.31;100.00
68226;BME280;55045;49.410;11.030;2023-06-10T04:23:32;97827.75;;;13.33;100.00
68226;BME280;55045;49.410;11.030;2023-06-10T04:26:35;97821.69;;;13.33;100.00
68226;BME280;55045;49.410;11.030;2023-06-10T04:29:39;97819.13;;;13.45;100.00
68226;BME280;55045;49.410;11.030;2023-06-10T04:32:42;97820.75;;;13.61;100.00
68226;BME280;55045;49.410;11.030;2023-06-10T04:35:51;97817.13;;;13.63;100.00
68226;BME280;55045;49.410;11.030;2023-06-10T04:38:57;97819.28;;;13.57;100.00
68226;BME280;55045;49.410;11.030;2023-06-10T04:42:03;97811.88;;;13.90;100.00
68226;BME280;55045;49.410;11.030;2023-06-10T04:45:08;97808.44;;;14.02;100.00
68226;BME280;55045;49.410;11.030;2023-06-10T04:48:12;97818.97;;;14.13;100.00
68226;BME280;55045;49.410;11.030;2023-06-10T04:51:17;97807.59;;;14.15;100.00
68226;BME280;55045;49.410;11.030;2023-06-10T04:54:21;97807.38;;;14.18;100.00
68226;BME280;55045;49.410;11.030;2023-06-10T04:57:24;97822.19;;;14.30;100.00
68226;BME280;55045;49.410;11.030;2023-06-10T05:00:28;97819.63;;;14.43;100.00
68226;BME280;55045;49.410;11.030;2023-06-10T05:03:31;97815.59;;;14.51;100.00
68226;BME280;55045;49.410;11.030;2023-06-10T05:06:36;97809.63;;;14.62;100.00
68226;BME280;55045;49.410;11.030;2023-06-10T05:09:39;97815.31;;;14.80;100.00
68226;BME280;55045;49.410;11.030;2023-06-10T05:12:42;97814.06;;;14.85;100.00
68226;BME280;55045;49.410;11.030;2023-06-10T05:15:45;97816.53;;;14.99;100.00
68226;BME280;55045;49.410;11.030;2023-06-10T05:18:49;97814.63;;;15.14;100.00
68226;BME280;55045;49.410;11.030;2023-06-10T05:21:54;97809.28;;;15.16;100.00
68226;BME280;55045;49.410;11.030;2023-06-10T05:24:57;97800.00;;;15.36;100.00
68226;BME280;55045;49.410;11.030;2023-06-10T05:28:00;97813.50;;;15.53;100.00
68226;BME280;55045;49.410;11.030;2023-06-10T05:31:04;97810.06;;;15.53;100.00
68226;BME280;55045;49.410;11.030;2023-06-10T05:34:08;97806.53;;;15.89;100.00
68226;BME280;55045;49.410;11.030;2023-06-10T05:37:13;97803.81;;;15.91;100.00
68226;BME280;55045;49.410;11.030;2023-06-10T05:40:16;97799.94;;;16.07;100.00
68226;BME280;55045;49.410;11.030;2023-06-10T05:43:19;97809.31;;;16.10;100.00
68226;BME280;55045;49.410;11.030;2023-06-10T05:46:23;97808.53;;;16.43;100.00
68226;BME280;55045;49.410;11.030;2023-06-10T05:49:26;97809.06;;;16.70;100.00
68226;BME280;55045;49.410;11.030;2023-06-10T05:52:31;97806.78;;;16.88;100.00
68226;BME280;55045;49.410;11.030;2023-06-10T05:55:35;97811.19;;;17.42;100.00
68226;BME280;55045;49.410;11.030;2023-06-10T05:58:38;97815.16;;;18.22;100.00
68226;BME280;55045;49.410;11.030;2023-06-10T06:01:41;97814.13;;;18.95;100.00
68226;BME280;55045;49.410;11.030;2023-06-10T06:04:45;97817.78;;;19.13;100.00
68226;BME280;55045;49.410;11.030;2023-06-10T06:07:49;97811.78;;;19.51;100.00
68226;BME280;55045;49.410;11.030;2023-06-10T06:10:53;97813.38;;;19.14;100.00
68226;BME280;55045;49.410;11.030;2023-06-10T06:13:56;97814.50;;;19.21;100.00
68226;BME280;55045;49.410;11.030;2023-06-10T06:16:59;97812.63;;;19.62;100.00
68226;BME280;55045;49.410;11.030;2023-06-10T06:20:03;97810.28;;;19.88;100.00
68226;BME280;55045;49.410;11.030;2023-06-10T06:23:11;97804.34;;;20.52;100.00
68226;BME280;55045;49.410;11.030;2023-06-10T06:26:15;97811.84;;;20.84;100.00
68226;BME280;55045;49.410;11.030;2023-06-10T06:29:19;97811.31;;;20.80;100.00
68226;BME280;55045;49.410;11.030;2023-06-10T06:32:22;97815.44;;;20.92;100.00
68226;BME280;55045;49.410;11.030;2023-06-10T06:35:26;97806.50;;;20.76;100.00
68226;BME280;55045;49.410;11.030;2023-06-10T06:38:31;97814.44;;;20.66;100.00
68226;BME280;55045;49.410;11.030;2023-06-10T06:41:35;97813.25;;;21.61;100.00
68226;BME280;55045;49.410;11.030;2023-06-10T06:44:38;97808.34;;;21.20;100.00
68226;BME280;55045;49.410;11.030;2023-06-10T06:47:42;97805.00;;;21.28;100.00
68226;BME280;55045;49.410;11.030;2023-06-10T06:50:45;97816.56;;;21.63;100.00
68226;BME280;55045;49.410;11.030;2023-06-10T06:53:50;97803.50;;;21.97;100.00
68226;BME280;55045;49.410;11.030;2023-06-10T06:56:55;97808.84;;;21.34;100.00
68226;BME280;55045;49.410;11.030;2023-06-10T06:59:59;97807.28;;;21.41;100.00
68226;BME280;55045;49.410;11.030;2023-06-10T07:03:03;97803.75;;;21.68;100.00
68226;BME280;55045;49.410;11.030;2023-06-10T07:06:06;97805.69;;;22.45;100.00
68226;BME280;55045;49.410;11.030;2023-06-10T07:09:12;97797.44;;;23.16;96.79
68226;BME280;55045;49.410;11.030;2023-06-10T07:12:15;97802.06;;;23.73;94.69
68226;BME280;55045;49.410;11.030;2023-06-10T07:15:20;97806.16;;;23.59;92.26
68226;BME280;55045;49.410;11.030;2023-06-10T07:18:23;97812.06;;;22.94;98.06
68226;BME280;55045;49.410;11.030;2023-06-10T07:21:26;97811.16;;;23.12;93.48
68226;BME280;55045;49.410;11.030;2023-06-10T07:24:31;97800.88;;;24.00;90.51
68226;BME280;55045;49.410;11.030;2023-06-10T07:27:35;97812.66;;;24.22;91.15
68226;BME280;55045;49.410;11.030;2023-06-10T07:30:39;97814.25;;;24.63;88.04
68226;BME280;55045;49.410;11.030;2023-06-10T07:33:42;97803.16;;;24.60;87.72
68226;BME280;55045;49.410;11.030;2023-06-10T07:36:46;97811.31;;;24.18;90.87
68226;BME280;55045;49.410;11.030;2023-06-10T07:39:51;97816.13;;;24.22;88.89
68226;BME280;55045;49.410;11.030;2023-06-10T07:42:55;97807.00;;;24.41;89.89
68226;BME280;55045;49.410;11.030;2023-06-10T07:45:58;97801.22;;;24.37;87.61
68226;BME280;55045;49.410;11.030;2023-06-10T07:49:01;97804.53;;;24.39;88.23
68226;BME280;55045;49.410;11.030;2023-06-10T07:52:06;97812.00;;;24.91;85.19
68226;BME280;55045;49.410;11.030;2023-06-10T07:55:11;97803.69;;;24.39;87.75
68226;BME280;55045;49.410;11.030;2023-06-10T07:58:14;97806.25;;;24.80;88.47
68226;BME280;55045;49.410;11.030;2023-06-10T08:01:17;97803.72;;;24.94;88.07
68226;BME280;55045;49.410;11.030;2023-06-10T08:04:21;97805.88;;;25.30;84.93
68226;BME280;55045;49.410;11.030;2023-06-10T08:07:24;97806.75;;;25.22;82.77
68226;BME280;55045;49.410;11.030;2023-06-10T08:10:29;97801.13;;;24.78;84.25
68226;BME280;55045;49.410;11.030;2023-06-10T08:13:33;97797.66;;;25.48;83.39
68226;BME280;55045;49.410;11.030;2023-06-10T08:16:36;97800.53;;;25.38;81.55
68226;BME280;55045;49.410;11.030;2023-06-10T08:19:41;97805.94;;;25.22;83.19
68226;BME280;55045;49.410;11.030;2023-06-10T08:22:44;97798.34;;;25.11;82.10
68226;BME280;55045;49.410;11.030;2023-06-10T08:25:49;97790.84;;;24.83;82.90
68226;BME280;55045;49.410;11.030;2023-06-10T08:28:53;97798.53;;;25.63;79.30
68226;BME280;55045;49.410;11.030;2023-06-10T08:31:57;97787.91;;;25.63;79.54
68226;BME280;55045;49.410;11.030;2023-06-10T08:35:01;97778.66;;;25.36;79.94
68226;BME280;55045;49.410;11.030;2023-06-10T08:38:04;97793.94;;;25.57;79.31
68226;BME280;55045;49.410;11.030;2023-06-10T08:41:10;97788.78;;;25.33;82.15
68226;BME280;55045;49.410;11.030;2023-06-10T08:44:17;97793.56;;;25.37;80.51
68226;BME280;55045;49.410;11.030;2023-06-10T08:47:24;97785.34;;;25.55;79.81
68226;BME280;55045;49.410;11.030;2023-06-10T08:50:29;97788.06;;;25.70;79.51
68226;BME280;55045;49.410;11.030;2023-06-10T08:53:36;97763.91;;;25.56;78.08
68226;BME280;55045;49.410;11.030;2023-06-10T08:56:42;97785.59;;;25.91;76.92
68226;BME280;55045;49.410;11.030;2023-06-10T08:59:47;97782.00;;;26.22;75.36
68226;BME280;55045;49.410;11.030;2023-06-10T09:02:51;97786.03;;;26.18;72.23
68226;BME280;55045;49.410;11.030;2023-06-10T09:05:55;97757.69;;;26.10;73.21
68226;BME280;55045;49.410;11.030;2023-06-10T09:08:59;97771.28;;;25.92;75.53
68226;BME280;55045;49.410;11.030;2023-06-10T09:12:07;97780.78;;;26.09;73.54
68226;BME280;55045;49.410;11.030;2023-06-10T09:15:10;97787.75;;;26.10;71.65
68226;BME280;55045;49.410;11.030;2023-06-10T09:18:16;97782.97;;;25.83;73.40
68226;BME280;55045;49.410;11.030;2023-06-10T09:21:20;97779.09;;;25.71;75.68
68226;BME280;55045;49.410;11.030;2023-06-10T09:24:24;97781.25;;;25.75;78.17
68226;BME280;55045;49.410;11.030;2023-06-10T09:27:31;97783.16;;;25.59;80.52
68226;BME280;55045;49.410;11.030;2023-06-10T09:34:20;97784.06;;;26.11;73.20
68226;BME280;55045;49.410;11.030;2023-06-10T09:37:27;97771.16;;;26.08;75.06
68226;BME280;55045;49.410;11.030;2023-06-10T09:40:31;97783.50;;;26.54;73.33
68226;BME280;55045;49.410;11.030;2023-06-10T09:43:39;97788.25;;;26.29;73.41
68226;BME280;55045;49.410;11.030;2023-06-10T09:46:44;97782.69;;;26.16;74.30
68226;BME280;55045;49.410;11.030;2023-06-10T09:49:50;97784.97;;;26.04;76.69
68226;BME280;55045;49.410;11.030;2023-06-10T09:52:55;97789.03;;;26.52;73.28
68226;BME280;55045;49.410;11.030;2023-06-10T09:55:59;97784.09;;;26.79;75.38
68226;BME280;55045;49.410;11.030;2023-06-10T09:59:07;97772.88;;;26.39;75.15
68226;BME280;55045;49.410;11.030;2023-06-10T10:02:14;97782.34;;;26.71;73.74
68226;BME280;55045;49.410;11.030;2023-06-10T10:05:22;97782.94;;;27.17;71.27
68226;BME280;55045;49.410;11.030;2023-06-10T10:08:25;97774.72;;;26.83;72.72
68226;BME280;55045;49.410;11.030;2023-06-10T10:11:30;97777.75;;;26.12;69.89
68226;BME280;55045;49.410;11.030;2023-06-10T10:14:35;97767.94;;;25.98;73.25
68226;BME280;55045;49.410;11.030;2023-06-10T10:17:40;97771.63;;;25.43;73.92
68226;BME280;55045;49.410;11.030;2023-06-10T10:20:50;97775.19;;;24.96;76.45
68226;BME280;55045;49.410;11.030;2023-06-10T10:24:00;97768.38;;;24.63;79.15
68226;BME280;55045;49.410;11.030;2023-06-10T10:27:18;97770.13;;;24.70;80.09
68226;BME280;55045;49.410;11.030;2023-06-10T10:30:22;97769.88;;;24.49;81.59
68226;BME280;55045;49.410;11.030;2023-06-10T10:33:30;97773.75;;;25.25;79.14
68226;BME280;55045;49.410;11.030;2023-06-10T10:36:37;97767.94;;;24.82;79.90
68226;BME280;55045;49.410;11.030;2023-06-10T10:39:41;97766.84;;;24.60;80.82
68226;BME280;55045;49.410;11.030;2023-06-10T10:42:45;97760.22;;;24.73;80.52
68226;BME280;55045;49.410;11.030;2023-06-10T10:45:58;97761.72;;;24.59;80.91
68226;BME280;55045;49.410;11.030;2023-06-10T10:49:01;97757.25;;;25.38;80.82
68226;BME280;55045;49.410;11.030;2023-06-10T10:52:11;97767.03;;;25.37;80.71
68226;BME280;55045;49.410;11.030;2023-06-10T10:55:14;97766.13;;;25.22;80.64
68226;BME280;55045;49.410;11.030;2023-06-10T10:58:24;97775.28;;;25.11;78.74
68226;BME280;55045;49.410;11.030;2023-06-10T11:01:39;97776.34;;;25.02;79.51
68226;BME280;55045;49.410;11.030;2023-06-10T11:04:44;97767.97;;;25.13;80.35
68226;BME280;55045;49.410;11.030;2023-06-10T11:07:54;97775.50;;;25.33;80.33
68226;BME280;55045;49.410;11.030;2023-06-10T11:10:58;97768.13;;;25.20;79.87
68226;BME280;55045;49.410;11.030;2023-06-10T11:14:08;97765.38;;;25.36;81.07
68226;BME280;55045;49.410;11.030;2023-06-10T11:17:18;97733.09;;;24.93;80.29
68226;BME280;55045;49.410;11.030;2023-06-10T11:24:13;97763.63;;;24.81;78.47
68226;BME280;55045;49.410;11.030;2023-06-10T11:27:20;97762.69;;;25.90;77.19
68226;BME280;55045;49.410;11.030;2023-06-10T11:30:34;97740.91;;;26.09;74.73
68226;BME280;55045;49.410;11.030;2023-06-10T11:33:38;97752.81;;;26.13;74.50
68226;BME280;55045;49.410;11.030;2023-06-10T11:36:42;97750.03;;;25.92;76.47
68226;BME280;55045;49.410;11.030;2023-06-10T11:39:51;97749.53;;;25.74;77.81
68226;BME280;55045;49.410;11.030;2023-06-10T11:42:55;97757.69;;;25.41;75.65
68226;BME280;55045;49.410;11.030;2023-06-10T11:45:58;97756.91;;;25.10;76.95
68226;BME280;55045;49.410;11.030;2023-06-10T11:49:03;97761.16;;;24.80;79.41
68226;BME280;55045;49.410;11.030;2023-06-10T11:52:07;97752.78;;;24.99;81.60
68226;BME280;55045;49.410;11.030;2023-06-10T11:55:12;97754.03;;;25.42;78.73
68226;BME280;55045;49.410;11.030;2023-06-10T11:58:15;97749.88;;;25.48;78.22
68226;BME280;55045;49.410;11.030;2023-06-10T12:01:20;97753.13;;;25.35;75.74
68226;BME280;55045;49.410;11.030;2023-06-10T12:04:30;97756.31;;;25.76;73.47
68226;BME280;55045;49.410;11.030;2023-06-10T12:07:34;97752.38;;;26.10;71.70
68226;BME280;55045;49.410;11.030;2023-06-10T12:10:42;97746.38;;;25.93;71.76
68226;BME280;55045;49.410;11.030;2023-06-10T12:13:46;97748.97;;;26.01;74.16
68226;BME280;55045;49.410;11.030;2023-06-10T12:16:51;97746.84;;;25.51;76.71
68226;BME280;55045;49.410;11.030;2023-06-10T12:19:54;97748.97;;;25.33;78.75
68226;BME280;55045;49.410;11.030;2023-06-10T12:22:59;97729.50;;;25.63;75.40
68226;BME280;55045;49.410;11.030;2023-06-10T12:26:04;97740.38;;;26.29;75.30
68226;BME280;55045;49.410;11.030;2023-06-10T12:29:17;97738.00;;;26.34;74.51
68226;BME280;55045;49.410;11.030;2023-06-10T12:32:22;97732.59;;;25.75;76.18
68226;BME280;55045;49.410;11.030;2023-06-10T12:35:29;97729.09;;;25.28;74.65
68226;BME280;55045;49.410;11.030;2023-06-10T12:38:33;97732.97;;;25.18;78.11
68226;BME280;55045;49.410;11.030;2023-06-10T12:41:38;97723.50;;;25.46;80.21
68226;BME280;55045;49.410;11.030;2023-06-10T12:44:41;97728.63;;;26.08;75.98
68226;BME280;55045;49.410;11.030;2023-06-10T12:47:45;97732.88;;;26.32;74.90
68226;BME280;55045;49.410;11.030;2023-06-10T12:50:51;97726.28;;;26.73;75.84
68226;BME280;55045;49.410;11.030;2023-06-10T12:53:54;97720.66;;;26.23;74.44
68226;BME280;55045;49.410;11.030;2023-06-10T12:56:59;97716.50;;;25.91;73.10
68226;BME280;55045;49.410;11.030;2023-06-10T13:00:03;97718.41;;;25.82;69.02
68226;BME280;55045;49.410;11.030;2023-06-10T13:03:10;97715.38;;;25.63;72.27
68226;BME280;55045;49.410;11.030;2023-06-10T13:06:13;97729.94;;;25.75;73.21
68226;BME280;55045;49.410;11.030;2023-06-10T13:09:17;97706.84;;;25.52;75.87
68226;BME280;55045;49.410;11.030;2023-06-10T13:12:22;97701.47;;;25.61;75.38
68226;BME280;55045;49.410;11.030;2023-06-10T13:15:45;97710.22;;;26.22;72.08
68226;BME280;55045;49.410;11.030;2023-06-10T13:18:48;97709.94;;;26.90;71.25
68226;BME280;55045;49.410;11.030;2023-06-10T13:21:52;97692.47;;;27.39;71.45
68226;BME280;55045;49.410;11.030;2023-06-10T13:24:55;97693.78;;;27.28;67.28
68226;BME280;55045;49.410;11.030;2023-06-10T13:27:59;97696.53;;;26.84;68.87
68226;BME280;55045;49.410;11.030;2023-06-10T13:31:03;97687.94;;;26.23;72.05
68226;BME280;55045;49.410;11.030;2023-06-10T13:34:06;97686.94;;;26.09;71.46
68226;BME280;55045;49.410;11.030;2023-06-10T13:37:09;97681.09;;;26.43;67.39
68226;BME280;55045;49.410;11.030;2023-06-10T13:40:14;97682.94;;;27.08;68.09
68226;BME280;55045;49.410;11.030;2023-06-10T13:43:19;97678.28;;;27.17;67.76
68226;BME280;55045;49.410;11.030;2023-06-10T13:46:22;97673.84;;;27.45;65.34
68226;BME280;55045;49.410;11.030;2023-06-10T13:49:26;97666.72;;;26.88;69.15
68226;BME280;55045;49.410;11.030;2023-06-10T13:52:29;97671.56;;;26.85;67.00
68226;BME280;55045;49.410;11.030;2023-06-10T13:55:32;97681.09;;;26.58;68.46
68226;BME280;55045;49.410;11.030;2023-06-10T13:58:37;97672.81;;;26.23;68.55
68226;BME280;55045;49.410;11.030;2023-06-10T14:01:42;97680.44;;;26.11;71.11
68226;BME280;55045;49.410;11.030;2023-06-10T14:04:45;97684.00;;;26.04;72.04
68226;BME280;55045;49.410;11.030;2023-06-10T14:07:49;97685.06;;;25.80;73.16
68226;BME280;55045;49.410;11.030;2023-06-10T14:10:52;97686.91;;;25.79;73.70
68226;BME280;55045;49.410;11.030;2023-06-10T14:13:56;97685.66;;;26.20;72.76
68226;BME280;55045;49.410;11.030;2023-06-10T14:17:00;97684.00;;;26.33;71.97
68226;BME280;55045;49.410;11.030;2023-06-10T14:20:04;97682.69;;;26.74;71.82
68226;BME280;55045;49.410;11.030;2023-06-10T14:23:07;97686.94;;;26.09;72.62
68226;BME280;55045;49.410;11.030;2023-06-10T14:26:11;97683.50;;;25.71;73.52
68226;BME280;55045;49.410;11.030;2023-06-10T14:29:15;97693.31;;;25.62;74.92
68226;BME280;55045;49.410;11.030;2023-06-10T14:32:20;97694.28;;;25.46;75.42
68226;BME280;55045;49.410;11.030;2023-06-10T14:35:23;97698.63;;;25.62;73.61
68226;BME280;55045;49.410;11.030;2023-06-10T14:38:27;97697.72;;;25.55;75.08
68226;BME280;55045;49.410;11.030;2023-06-10T14:41:30;97686.22;;;25.40;75.43
68226;BME280;55045;49.410;11.030;2023-06-10T14:44:34;97688.03;;;25.39;71.40
68226;BME280;55045;49.410;11.030;2023-06-10T14:47:38;97687.50;;;25.67;68.13
68226;BME280;55045;49.410;11.030;2023-06-10T14:50:42;97687.19;;;26.14;64.43
68226;BME280;55045;49.410;11.030;2023-06-10T14:53:48;97684.81;;;26.34;64.25
68226;BME280;55045;49.410;11.030;2023-06-10T14:56:52;97679.78;;;26.68;62.91
68226;BME280;55045;49.410;11.030;2023-06-10T14:59:57;97691.00;;;26.49;65.05
68226;BME280;55045;49.410;11.030;2023-06-10T15:03:00;97687.03;;;26.30;69.24
68226;BME280;55045;49.410;11.030;2023-06-10T15:06:04;97694.28;;;26.22;75.92
68226;BME280;55045;49.410;11.030;2023-06-10T15:09:07;97695.06;;;25.78;74.69
68226;BME280;55045;49.410;11.030;2023-06-10T15:12:11;97690.69;;;25.85;78.39
68226;BME280;55045;49.410;11.030;2023-06-10T15:15:15;97687.28;;;26.35;75.82
68226;BME280;55045;49.410;11.030;2023-06-10T15:18:19;97691.44;;;26.53;77.19
68226;BME280;55045;49.410;11.030;2023-06-10T15:21:22;97685.91;;;26.25;75.33
68226;BME280;55045;49.410;11.030;2023-06-10T15:24:26;97692.22;;;25.79;77.27
68226;BME280;55045;49.410;11.030;2023-06-10T15:27:29;97690.09;;;25.75;77.43
68226;BME280;55045;49.410;11.030;2023-06-10T15:34:19;97675.56;;;25.63;78.92
68226;BME280;55045;49.410;11.030;2023-06-10T15:37:23;97685.72;;;25.82;79.05
68226;BME280;55045;49.410;11.030;2023-06-10T15:40:26;97680.88;;;25.63;84.80
68226;BME280;55045;49.410;11.030;2023-06-10T15:43:30;97683.53;;;26.00;79.63
68226;BME280;55045;49.410;11.030;2023-06-10T15:46:33;97677.91;;;25.80;80.63
68226;BME280;55045;49.410;11.030;2023-06-10T15:49:38;97683.53;;;25.63;81.64
68226;BME280;55045;49.410;11.030;2023-06-10T15:52:42;97684.78;;;25.52;80.44
68226;BME280;55045;49.410;11.030;2023-06-10T15:55:45;97686.28;;;25.54;77.64
68226;BME280;55045;49.410;11.030;2023-06-10T15:58:50;97685.84;;;25.43;77.85
68226;BME280;55045;49.410;11.030;2023-06-10T16:01:53;97668.59;;;25.24;81.53
68226;BME280;55045;49.410;11.030;2023-06-10T16:04:58;97674.97;;;24.84;84.11
68226;BME280;55045;49.410;11.030;2023-06-10T16:08:01;97675.09;;;25.13;84.71
68226;BME280;55045;49.410;11.030;2023-06-10T16:11:04;97679.31;;;24.99;84.38
68226;BME280;55045;49.410;11.030;2023-06-10T16:14:08;97684.97;;;25.27;83.12